Airfield :







YOU CAN JOIN US ON...

 
LOGIN :

Register | Disclaimer

   EN    FR    IT 

 









Legend :    VFR   Marginal VFR   IFR   Intensive IFR   Very Intensive IFR
Visi :
Ceiling :
>= 8 km
>= 3000ft
5 to 8 km
1000 to 3000 ft
1500m to 5 km
500 to 1000 ft
800 to 1500m
200 to 500 ft
< 800m
< 200 ft
Symbols :   Thunderstorms  Fog  Heavy snow  Heavy precipitations  Wind > 20 kt






- Airport Elevation : 23 ft
- IATA code : STT


TIST - King

CURRENT METAR :
  • 231653Z 05012G22KT 10SM SCT030 31/23 A3006 RMK AO2 PK WND 07030/1639 RAE03B29E51 SLP178 P0000 T03110228

EXPIRED METARs :
  • 231553Z 08017G23KT 10SM -RA FEW031 31/22 A3007 RMK AO2 RAB1459 SLP182 P0000 T03110217
  • 231453Z 05011G21KT 10SM FEW025 31/22 A3007 RMK AO2 SLP182 60000 T03060222 53006

TAF TIST
Valid from the 23 at 12:00 until the 24 at 12:00 UTC


231140Z 2312/2412 07011KT P6SM SCT030
FM231500 07017KT P6SM VCSH SCT025 SCT035 SCT050
FM232300 07009KT P6SM FEW025 SCT035
TJZS FIR / North America



MET'MAP, your aeronautical weather chart ! - Copyright ORBIFLY December 2007 - Disclaimer

ORBIFLY MET'MAP TEAM :

Programming & Development : Alexandra Zaïnal
Concept & original design : Baudouin d'Aumeries
Assistance for programming : Marc-Olivier Méhu
Technical & hardware support : Manuel Goepfert

Contact : metmap@orbifly.com




SOURCES & CREDITS :

   NOAA